Time;durP1;ratioP1;P1;durP2;ratioP2;P2;SDS_P1;SDS_P2;PMS_P1;PMS_P2;Temp;Humidity;BMP_temperature;BMP_pressure;BME280_temperature;BME280_humidity;BME280_pressure;Samples;Min_cycle;Max_cycle;Signal;HPM_P1;HPM_P2
2022/08/24 00:02:05;;;;;;;3.73;3.17;;;;;;;16.97;84.36;96690.50;5056601;28;20260;-51
2022/08/24 00:04:32;;;;;;;3.50;3.20;;;;;;;16.96;84.57;96687.00;5057322;28;20276;-52
2022/08/24 00:06:59;;;;;;;3.63;3.25;;;;;;;16.99;84.19;96691.97;5056992;28;20243;-51
2022/08/24 00:09:26;;;;;;;4.07;3.50;;;;;;;16.92;84.67;96697.22;5057496;28;20218;-51
2022/08/24 00:11:52;;;;;;;3.53;3.22;;;;;;;16.80;85.86;96692.47;5057848;28;20215;-56
2022/08/24 00:14:19;;;;;;;5.77;3.43;;;;;;;16.77;86.23;96695.50;5055510;28;20261;-54
2022/08/24 00:16:47;;;;;;;5.32;3.30;;;;;;;16.69;86.60;96693.72;5056034;28;20227;-55
2022/08/24 00:19:14;;;;;;;4.38;3.55;;;;;;;16.75;85.79;96701.03;5057010;28;20235;-54
2022/08/24 00:21:40;;;;;;;3.90;3.60;;;;;;;16.71;87.07;96686.38;5056803;28;20257;-56
2022/08/24 00:24:08;;;;;;;5.47;3.60;;;;;;;16.75;85.61;96694.88;5057106;28;20309;-55
2022/08/24 00:26:35;;;;;;;7.60;3.55;;;;;;;16.72;86.69;96693.38;5056048;28;20210;-54
2022/08/24 00:29:02;;;;;;;4.88;3.65;;;;;;;16.69;85.72;96691.06;5056386;28;20207;-56
2022/08/24 00:31:30;;;;;;;4.00;3.60;;;;;;;16.65;86.55;96695.09;5057272;28;20281;-55
2022/08/24 00:33:58;;;;;;;4.53;3.63;;;;;;;16.61;87.38;96688.47;5057061;28;20294;-55
2022/08/24 00:36:25;;;;;;;4.10;3.60;;;;;;;16.54;87.37;96690.16;5056988;28;20589;-54
2022/08/24 00:38:53;;;;;;;4.00;3.60;;;;;;;16.57;86.74;96687.16;5056337;28;20242;-54
2022/08/24 00:41:20;;;;;;;5.70;3.60;;;;;;;16.54;87.04;96695.50;5057019;28;20294;-55
2022/08/24 00:43:54;;;;;;;4.05;3.75;;;;;;;16.50;87.14;96691.53;5043979;28;20204;-55
2022/08/24 00:46:23;;;;;;;4.18;3.70;;;;;;;16.44;88.61;96694.91;5056493;28;20198;-56
2022/08/24 00:48:53;;;;;;;4.83;3.67;;;;;;;16.43;88.15;96695.94;5056221;28;20630;-56
2022/08/24 00:51:24;;;;;;;4.68;3.45;;;;;;;16.45;87.15;96696.56;5057177;28;20237;-55
2022/08/24 00:53:54;;;;;;;5.03;3.90;;;;;;;16.39;89.34;96694.63;5056668;28;20276;-55
2022/08/24 00:56:25;;;;;;;4.50;3.80;;;;;;;16.32;88.84;96693.66;5056613;28;20231;-56
2022/08/24 00:58:55;;;;;;;4.00;3.70;;;;;;;16.23;89.46;96692.03;5056230;28;20203;-55
2022/08/24 01:01:22;;;;;;;4.67;3.97;;;;;;;16.30;88.08;96691.16;5057446;28;20246;-49
2022/08/24 01:03:50;;;;;;;5.17;4.10;;;;;;;16.24;90.83;96693.72;5056843;28;20246;-56
2022/08/24 01:06:17;;;;;;;4.57;3.93;;;;;;;16.26;89.78;96694.38;5056400;28;20253;-55
2022/08/24 01:08:45;;;;;;;5.03;3.37;;;;;;;16.20;91.22;96689.72;5056320;28;20678;-56
2022/08/24 01:11:15;;;;;;;4.13;3.60;;;;;;;16.20;91.08;96689.72;5056457;28;20242;-56
2022/08/24 01:13:45;;;;;;;4.40;4.00;;;;;;;16.21;91.19;96691.41;5056383;28;20738;-56
2022/08/24 01:16:12;;;;;;;3.97;3.40;;;;;;;16.16;91.60;96686.59;5056718;28;20238;-56
2022/08/24 01:18:50;;;;;;;4.53;3.63;;;;;;;16.11;90.85;96686.31;5055707;28;20235;-57
2022/08/24 01:21:20;;;;;;;4.90;3.30;;;;;;;16.12;91.97;96682.59;5055919;28;20242;-56
2022/08/24 01:23:51;;;;;;;3.80;3.50;;;;;;;16.07;91.60;96681.47;5057301;28;20286;-56
2022/08/24 01:26:20;;;;;;;4.70;3.70;;;;;;;16.07;91.57;96678.81;5056813;28;20301;-56
2022/08/24 01:28:49;;;;;;;6.93;4.10;;;;;;;16.06;92.41;96677.16;5057339;28;20231;-54
2022/08/24 01:31:19;;;;;;;4.67;3.77;;;;;;;16.03;92.98;96677.50;5057856;28;20210;-54
2022/08/24 01:33:49;;;;;;;4.10;3.67;;;;;;;16.01;92.87;96675.03;5060013;28;20249;-55
2022/08/24 01:36:20;;;;;;;5.40;3.60;;;;;;;16.04;92.42;96677.34;5065266;28;20226;-55
2022/08/24 01:38:49;;;;;;;3.80;3.40;;;;;;;15.99;93.63;96676.19;5079194;28;20179;-55
2022/08/24 01:41:16;;;;;;;5.53;3.90;;;;;;;15.99;93.43;96676.19;5071726;28;20200;-54
2022/08/24 01:43:42;;;;;;;4.40;4.00;;;;;;;15.98;93.10;96675.34;5066748;28;20188;-55
2022/08/24 01:46:09;;;;;;;5.97;3.57;;;;;;;15.96;93.30;96677.38;5072952;28;20211;-56
2022/08/24 01:48:36;;;;;;;4.10;3.60;;;;;;;15.98;92.00;96674.56;5067950;28;20220;-55
2022/08/24 01:51:03;;;;;;;6.57;3.53;;;;;;;15.93;93.87;96683.91;5065062;28;20196;-54
2022/08/24 01:53:30;;;;;;;3.90;3.60;;;;;;;15.89;94.24;96671.91;5071408;28;20190;-51
2022/08/24 01:55:58;;;;;;;3.90;3.60;;;;;;;15.91;93.17;96675.22;5076173;28;20191;-50
2022/08/24 01:58:25;;;;;;;4.77;3.60;;;;;;;15.90;93.85;96680.75;5076974;28;20188;-52
2022/08/24 02:00:51;;;;;;;4.20;3.87;;;;;;;15.81;95.11;96674.63;5071829;28;20195;-52
2022/08/24 02:03:19;;;;;;;3.90;3.50;;;;;;;15.81;95.02;96673.78;5058734;28;20204;-50
2022/08/24 02:05:46;;;;;;;4.67;3.20;;;;;;;15.82;94.70;96678.97;5071082;28;20207;-52
2022/08/24 02:08:12;;;;;;;3.47;3.27;;;;;;;15.76;95.10;96682.34;5048414;28;20290;-52
2022/08/24 02:10:39;;;;;;;4.43;3.60;;;;;;;15.78;95.18;96684.81;5047049;28;20245;-52
2022/08/24 02:13:07;;;;;;;3.67;3.47;;;;;;;15.74;95.39;96678.16;5054583;28;20644;-52
2022/08/24 02:15:38;;;;;;;3.70;3.50;;;;;;;15.69;95.92;96686.69;5054688;28;20355;-51
2022/08/24 02:18:05;;;;;;;3.77;3.50;;;;;;;15.69;96.55;96685.88;5054140;28;20256;-52
2022/08/24 02:20:32;;;;;;;4.07;3.70;;;;;;;15.63;97.02;96687.38;5055095;28;20599;-52
2022/08/24 02:22:59;;;;;;;4.07;3.77;;;;;;;15.59;96.85;96683.38;5055160;28;20245;-52
2022/08/24 02:25:29;;;;;;;4.33;3.93;;;;;;;15.61;97.11;96685.88;5055049;28;20306;-52
2022/08/24 02:27:56;;;;;;;3.70;3.40;;;;;;;15.64;96.26;96683.72;5054299;28;20206;-52
2022/08/24 02:30:25;;;;;;;4.30;3.67;;;;;;;15.60;96.77;96693.03;5054667;28;20257;-51
2022/08/24 02:32:52;;;;;;;3.90;3.63;;;;;;;15.60;97.00;96687.72;5054993;28;20238;-50
2022/08/24 02:35:19;;;;;;;3.90;3.40;;;;;;;15.63;95.82;96686.53;5055079;28;20289;-51
2022/08/24 02:37:45;;;;;;;3.77;3.57;;;;;;;15.63;97.73;96692.69;5053785;28;20234;-51
2022/08/24 02:40:12;;;;;;;4.40;4.00;;;;;;;15.60;96.15;96692.22;5055050;28;20269;-51
2022/08/24 02:42:39;;;;;;;4.17;3.77;;;;;;;15.56;96.55;96689.06;5054885;28;20290;-52
2022/08/24 02:45:07;;;;;;;4.03;3.70;;;;;;;15.53;96.68;96692.06;5054896;28;20679;-52
2022/08/24 02:47:36;;;;;;;4.07;3.73;;;;;;;15.52;97.05;96690.41;5054032;28;20346;-52
2022/08/24 02:50:03;;;;;;;5.27;3.80;;;;;;;15.49;96.02;96687.25;5042656;28;20294;-52
2022/08/24 02:52:29;;;;;;;3.90;3.50;;;;;;;15.49;96.54;96688.09;5053792;28;20242;-50
2022/08/24 02:54:56;;;;;;;3.70;3.50;;;;;;;15.56;95.66;96696.22;5054942;28;20227;-51
2022/08/24 02:57:23;;;;;;;4.03;3.60;;;;;;;15.54;96.30;96693.75;5054228;28;20612;-52
2022/08/24 02:59:50;;;;;;;3.80;3.47;;;;;;;15.49;96.46;96689.91;5054430;28;20218;-51
2022/08/24 03:02:17;;;;;;;4.30;4.00;;;;;;;15.48;96.93;96688.25;5054129;28;20700;-51
2022/08/24 03:04:45;;;;;;;3.80;3.50;;;;;;;15.44;97.13;96685.91;5054385;28;20211;-51
2022/08/24 03:07:12;;;;;;;3.53;3.23;;;;;;;15.44;96.42;96688.56;5053633;28;20299;-51
2022/08/24 03:09:38;;;;;;;3.67;3.40;;;;;;;15.44;94.92;96688.56;5054444;28;20245;-52
2022/08/24 03:12:08;;;;;;;3.90;3.60;;;;;;;15.43;96.03;96680.75;5053923;28;20247;-52
2022/08/24 03:14:35;;;;;;;3.80;3.50;;;;;;;15.40;94.52;96686.44;5054273;28;20211;-51
2022/08/24 03:17:02;;;;;;;4.00;3.70;;;;;;;15.42;94.41;96684.41;5053654;28;20643;-52
2022/08/24 03:19:28;;;;;;;4.20;3.23;;;;;;;15.34;96.44;96677.28;5054540;28;20242;-52
2022/08/24 03:21:57;;;;;;;4.03;3.70;;;;;;;15.29;96.00;96676.97;5054272;28;20294;-52
2022/08/24 03:24:24;;;;;;;3.83;3.53;;;;;;;15.31;96.59;96677.63;5041269;28;20290;-51
2022/08/24 03:26:51;;;;;;;4.23;3.30;;;;;;;15.29;96.04;96690.31;5053870;28;20303;-51
2022/08/24 03:29:17;;;;;;;5.93;3.80;;;;;;;15.38;94.14;96686.59;5054000;28;20716;-51
2022/08/24 03:31:44;;;;;;;3.87;3.53;;;;;;;15.33;95.35;96686.31;5053955;28;20230;-52
2022/08/24 03:34:12;;;;;;;3.60;3.33;;;;;;;15.32;95.06;96683.78;5053635;28;20235;-50
2022/08/24 03:36:39;;;;;;;4.43;3.50;;;;;;;15.31;95.63;96682.13;5053966;28;20609;-51
2022/08/24 03:39:07;;;;;;;4.77;3.67;;;;;;;15.38;93.66;96683.09;5054012;28;20759;-52
2022/08/24 03:41:33;;;;;;;4.13;3.73;;;;;;;15.37;93.73;96676.94;5054278;28;20207;-51
2022/08/24 03:44:00;;;;;;;4.00;3.70;;;;;;;15.39;94.79;96685.59;5053770;28;20566;-51
2022/08/24 03:46:29;;;;;;;4.53;3.63;;;;;;;15.41;93.82;96683.59;5053951;28;20273;-51
2022/08/24 03:48:57;;;;;;;4.10;3.80;;;;;;;15.43;94.78;96686.09;5054286;28;20271;-51
2022/08/24 03:51:26;;;;;;;4.30;3.90;;;;;;;15.50;93.01;96679.09;5056388;28;20246;-50
2022/08/24 03:53:54;;;;;;;4.20;3.90;;;;;;;15.51;92.34;96688.75;5057545;28;20270;-52
2022/08/24 03:56:22;;;;;;;5.03;3.77;;;;;;;15.46;94.55;96691.06;5057804;28;20229;-52
2022/08/24 03:58:49;;;;;;;3.70;3.40;;;;;;;15.38;94.81;96681.25;5057736;28;20218;-52
2022/08/24 04:01:16;;;;;;;5.27;4.00;;;;;;;15.33;96.13;96688.97;5058096;28;20226;-51
2022/08/24 04:03:45;;;;;;;4.47;4.07;;;;;;;15.31;96.47;96695.44;5057750;28;20226;-52
2022/08/24 04:06:12;;;;;;;4.07;3.67;;;;;;;15.37;94.54;96692.13;5057557;28;20270;-52
2022/08/24 04:08:40;;;;;;;3.60;3.30;;;;;;;15.33;95.04;96686.31;5057085;28;20241;-51
2022/08/24 04:11:10;;;;;;;3.87;3.50;;;;;;;15.36;96.18;96683.28;5057249;28;20535;-51
2022/08/24 04:13:39;;;;;;;4.83;4.10;;;;;;;15.48;93.50;96689.06;5057120;28;20693;-52
2022/08/24 04:16:07;;;;;;;4.03;3.73;;;;;;;15.41;95.67;96688.91;5057403;28;20223;-51
2022/08/24 04:18:34;;;;;;;5.50;4.03;;;;;;;15.32;96.42;96686.47;5056878;28;20246;-51
2022/08/24 04:21:00;;;;;;;7.40;4.17;;;;;;;15.28;96.23;96687.78;5057005;28;20282;-52
2022/08/24 04:23:27;;;;;;;3.97;3.67;;;;;;;15.30;96.09;96688.47;5056814;28;20310;-52
2022/08/24 04:25:54;;;;;;;4.70;3.90;;;;;;;15.22;97.25;96680.50;5057000;28;20281;-51
2022/08/24 04:28:22;;;;;;;4.77;3.60;;;;;;;15.23;96.58;96680.31;5056398;28;20648;-52
2022/08/24 04:30:50;;;;;;;6.03;3.83;;;;;;;15.26;98.64;96679.16;5056460;28;20620;-50
2022/08/24 04:33:19;;;;;;;5.53;3.97;;;;;;;15.22;99.73;96683.16;5057178;28;20290;-51
2022/08/24 04:35:47;;;;;;;4.13;3.73;;;;;;;15.15;98.66;96676.84;5057035;28;20238;-52
2022/08/24 04:38:14;;;;;;;4.60;4.10;;;;;;;15.06;100.00;96691.16;5056576;28;20222;-52
2022/08/24 04:40:43;;;;;;;4.47;4.00;;;;;;;15.05;99.57;96686.88;5056264;28;20311;-51
2022/08/24 04:43:09;;;;;;;4.53;4.13;;;;;;;15.00;100.00;96695.34;5057351;28;20268;-52
2022/08/24 04:45:39;;;;;;;4.43;4.13;;;;;;;14.99;100.00;96703.50;5056871;28;20277;-52
2022/08/24 04:48:07;;;;;;;5.97;4.03;;;;;;;15.02;100.00;96703.19;5056218;28;20362;-51
2022/08/24 04:50:34;;;;;;;4.10;3.70;;;;;;;15.04;100.00;96702.00;5055867;28;20233;-52
2022/08/24 04:53:04;;;;;;;4.50;4.10;;;;;;;14.99;100.00;96704.34;5056737;28;20213;-52
2022/08/24 04:55:30;;;;;;;5.53;4.50;;;;;;;15.02;100.00;96704.00;5056602;28;20277;-51
2022/08/24 04:57:57;;;;;;;4.37;4.03;;;;;;;15.06;100.00;96715.13;5056364;28;20245;-52
2022/08/24 05:00:24;;;;;;;4.40;4.00;;;;;;;15.06;100.00;96712.47;5056471;28;20238;-52
2022/08/24 05:02:51;;;;;;;4.90;4.40;;;;;;;15.11;100.00;96718.13;5055059;28;20227;-52
2022/08/24 05:05:19;;;;;;;4.83;4.40;;;;;;;15.15;100.00;96714.16;5053738;28;20606;-52
2022/08/24 05:07:45;;;;;;;4.30;4.00;;;;;;;15.15;100.00;96722.13;5055990;28;20651;-52
2022/08/24 05:10:12;;;;;;;5.33;4.37;;;;;;;15.16;100.00;96721.94;5056011;28;20238;-52
2022/08/24 05:12:39;;;;;;;6.00;4.40;;;;;;;15.18;100.00;96719.13;5055921;28;20295;-52
2022/08/24 05:15:07;;;;;;;4.60;4.20;;;;;;;15.20;100.00;96717.94;5056566;28;20234;-52
2022/08/24 05:17:33;;;;;;;4.90;4.03;;;;;;;15.29;100.00;96716.09;5056466;28;20393;-51
2022/08/24 05:20:00;;;;;;;8.10;4.07;;;;;;;15.28;100.00;96719.78;5056730;28;20222;-51
2022/08/24 05:22:30;;;;;;;4.90;4.50;;;;;;;15.30;100.00;96723.09;5056124;28;20238;-51
2022/08/24 05:24:56;;;;;;;4.83;4.40;;;;;;;15.37;100.00;96724.91;5055887;28;20199;-52
2022/08/24 05:27:23;;;;;;;5.23;4.73;;;;;;;15.47;100.00;96727.38;5055926;28;20234;-52
2022/08/24 05:29:53;;;;;;;5.53;4.57;;;;;;;15.54;100.00;96720.41;5056681;28;20297;-51
2022/08/24 05:32:19;;;;;;;6.50;4.43;;;;;;;15.64;100.00;96726.34;5048230;28;20508;-52
2022/08/24 05:34:46;;;;;;;5.10;4.60;;;;;;;15.78;100.00;96728.31;5055652;28;20199;-52
2022/08/24 05:37:13;;;;;;;5.10;4.70;;;;;;;15.90;100.00;96726.94;5055985;28;20282;-51
2022/08/24 05:39:41;;;;;;;4.73;4.33;;;;;;;16.08;100.00;96724.00;5043192;28;20249;-51
2022/08/24 05:42:08;;;;;;;5.10;4.70;;;;;;;16.18;100.00;96729.13;5055751;28;20692;-51
2022/08/24 05:44:34;;;;;;;5.60;5.07;;;;;;;16.39;100.00;96729.31;5055253;28;20238;-51
2022/08/24 05:47:02;;;;;;;5.33;4.93;;;;;;;16.71;100.00;96733.63;5055013;28;20302;-51
2022/08/24 05:49:29;;;;;;;6.07;4.80;;;;;;;17.01;96.97;96727.34;5055622;28;20242;-52
2022/08/24 05:51:55;;;;;;;6.00;4.93;;;;;;;17.39;94.60;96730.84;5055562;28;20203;-53
2022/08/24 05:54:23;;;;;;;4.72;4.35;;;;;;;18.09;92.57;96728.53;5055547;28;20293;-51
2022/08/24 05:56:51;;;;;;;5.10;4.70;;;;;;;19.16;85.11;96732.09;5054517;28;20199;-50
2022/08/24 05:59:18;;;;;;;5.03;4.57;;;;;;;20.24;76.52;96732.34;5055851;28;20791;-51
2022/08/24 06:01:45;;;;;;;4.82;4.32;;;;;;;21.27;71.11;96737.34;5055433;28;20579;-52
2022/08/24 06:04:12;;;;;;;6.07;4.30;;;;;;;21.90;66.71;96734.94;5055481;28;20644;-51
2022/08/24 06:06:38;;;;;;;5.60;4.07;;;;;;;22.39;66.15;96735.22;5054660;28;20583;-52
2022/08/24 06:09:06;;;;;;;5.70;4.10;;;;;;;22.66;63.21;96741.31;5055375;28;20230;-54
2022/08/24 06:11:34;;;;;;;7.18;3.75;;;;;;;22.76;63.62;96737.13;5055073;28;20230;-52
2022/08/24 06:14:03;;;;;;;4.53;4.03;;;;;;;23.02;61.68;96738.00;5055396;28;20258;-52
2022/08/24 06:16:30;;;;;;;30.70;7.50;;;;;;;23.14;60.80;96728.97;5054596;28;20199;-53
2022/08/24 06:18:57;;;;;;;41.22;9.40;;;;;;;23.00;62.23;96734.69;5054933;28;20298;-51
2022/08/24 06:21:26;;;;;;;20.27;6.07;;;;;;;22.92;62.60;96730.38;5054914;28;20647;-53
2022/08/24 06:23:53;;;;;;;43.97;7.38;;;;;;;23.02;61.70;96738.00;5054923;28;20225;-53
2022/08/24 06:29:07;;;;;;;16.77;5.53;;;;;;;23.10;59.24;96737.72;5054943;28;20205;-51
2022/08/24 06:31:36;;;;;;;14.45;4.53;;;;;;;23.14;58.53;96739.75;5054585;28;20644;-52
2022/08/24 06:34:03;;;;;;;8.63;4.40;;;;;;;23.34;59.77;96738.78;5054392;28;20712;-51
2022/08/24 06:36:30;;;;;;;24.23;5.50;;;;;;;23.54;57.46;96737.59;5054977;28;20262;-53
2022/08/24 06:38:56;;;;;;;28.98;6.18;;;;;;;23.50;58.20;96743.66;5054833;28;20249;-53
2022/08/24 06:41:24;;;;;;;7.03;4.13;;;;;;;23.64;57.53;96745.19;5054345;28;20299;-51
2022/08/24 06:43:51;;;;;;;22.25;4.70;;;;;;;23.85;56.79;96747.47;5054280;28;20245;-52
2022/08/24 06:46:19;;;;;;;39.17;8.50;;;;;;;23.79;57.93;96741.09;5052360;28;20683;-51
2022/08/24 06:48:46;;;;;;;8.10;4.32;;;;;;;23.95;57.32;96744.25;5053844;28;20273;-50
2022/08/24 06:51:15;;;;;;;18.00;5.15;;;;;;;23.98;55.26;96736.53;5054109;28;20286;-50
2022/08/24 06:53:42;;;;;;;10.48;4.22;;;;;;;24.10;55.15;96734.72;5054346;28;20226;-51
2022/08/24 06:56:09;;;;;;;55.92;9.20;;;;;;;24.33;56.95;96739.47;5054467;28;20294;-51
2022/08/24 06:58:36;;;;;;;10.85;4.20;;;;;;;24.30;56.10;96734.53;5053088;28;20585;-51
2022/08/24 07:01:09;;;;;;;4.85;3.38;;;;;;;24.35;55.82;96741.94;5054173;28;20195;-49
2022/08/24 07:03:37;;;;;;;4.70;3.40;;;;;;;24.41;55.48;96741.03;5053019;28;20334;-51
2022/08/24 07:06:04;;;;;;;4.25;3.70;;;;;;;24.51;52.97;96741.31;5052722;28;20226;-52
2022/08/24 07:08:31;;;;;;;8.43;3.70;;;;;;;24.55;53.07;96742.53;5053419;28;20246;-50
2022/08/24 07:10:58;;;;;;;3.65;3.10;;;;;;;24.73;52.36;96746.00;5052437;28;20241;-50
2022/08/24 07:13:25;;;;;;;3.70;3.38;;;;;;;25.01;51.61;96745.41;5053108;28;20313;-51
2022/08/24 07:15:53;;;;;;;5.43;2.90;;;;;;;24.80;53.25;96745.09;5053575;28;20264;-51
2022/08/24 07:18:20;;;;;;;3.53;2.90;;;;;;;25.00;51.26;96751.06;5053442;28;20766;-50
2022/08/24 07:20:49;;;;;;;4.80;3.17;;;;;;;25.06;53.10;96750.13;5053377;28;20199;-51
2022/08/24 07:23:16;;;;;;;8.55;3.78;;;;;;;25.01;52.08;96745.41;5053471;28;20264;-50
2022/08/24 07:25:43;;;;;;;4.88;3.00;;;;;;;24.94;51.81;96744.69;5054030;28;20640;-50
2022/08/24 07:28:10;;;;;;;3.20;2.97;;;;;;;24.90;51.19;96748.09;5057012;28;20262;-52
2022/08/24 07:30:38;;;;;;;3.13;2.83;;;;;;;24.82;52.59;96753.78;5057635;28;20230;-50
2022/08/24 07:33:05;;;;;;;5.78;3.20;;;;;;;24.89;50.83;96749.16;5057384;28;20296;-51
2022/08/24 07:35:33;;;;;;;3.65;3.28;;;;;;;24.68;49.98;96748.56;5057429;28;20246;-51
2022/08/24 07:38:01;;;;;;;3.15;2.90;;;;;;;25.08;52.78;96753.44;5057158;28;20279;-50
2022/08/24 07:40:29;;;;;;;3.97;3.58;;;;;;;25.01;50.62;96752.72;5057628;28;20235;-51
2022/08/24 07:42:57;;;;;;;4.90;3.88;;;;;;;24.87;50.10;96756.69;5059239;28;20203;-51
2022/08/24 07:45:24;;;;;;;4.50;3.13;;;;;;;25.35;51.28;96749.25;5061507;28;20214;-50
2022/08/24 07:47:51;;;;;;;8.32;3.45;;;;;;;25.26;50.66;96756.88;5058725;28;20679;-51
2022/08/24 07:50:18;;;;;;;32.00;5.97;;;;;;;25.61;50.74;96748.84;5057887;28;20245;-52
2022/08/24 07:52:45;;;;;;;13.82;4.40;;;;;;;25.67;51.98;96758.75;5058376;28;20219;-51
2022/08/24 07:55:14;;;;;;;4.85;3.25;;;;;;;25.63;49.57;96746.72;5058322;28;20582;-51
2022/08/24 07:57:43;;;;;;;5.63;3.20;;;;;;;25.82;49.11;96749.31;5057152;28;20620;-52
2022/08/24 08:00:13;;;;;;;3.42;2.90;;;;;;;25.92;49.63;96754.97;5057469;28;20211;-51
2022/08/24 08:02:41;;;;;;;3.75;3.20;;;;;;;26.15;49.14;96750.34;5057365;28;20298;-52
2022/08/24 08:05:09;;;;;;;3.03;2.83;;;;;;;26.17;46.34;96756.41;5058568;28;20207;-52
2022/08/24 08:07:35;;;;;;;3.22;2.92;;;;;;;26.22;48.13;96753.78;5056545;28;20230;-50
2022/08/24 08:10:03;;;;;;;3.47;2.95;;;;;;;26.23;47.11;96752.72;5056832;28;20199;-51
2022/08/24 08:12:31;;;;;;;2.72;2.53;;;;;;;26.03;47.26;96754.13;5056710;28;20307;-51
2022/08/24 08:14:58;;;;;;;3.58;2.67;;;;;;;26.14;47.19;96753.31;5056690;28;20227;-53
2022/08/24 08:17:25;;;;;;;2.92;2.65;;;;;;;25.95;47.55;96755.31;5056741;28;20227;-52
2022/08/24 08:19:51;;;;;;;4.35;2.80;;;;;;;26.16;48.63;96757.41;5056810;28;20298;-51
2022/08/24 08:25:03;;;;;;;3.78;3.08;;;;;;;25.68;46.29;96765.78;5056425;28;20649;-53
2022/08/24 08:27:31;;;;;;;3.58;2.72;;;;;;;25.84;46.55;96763.44;5056410;28;20272;-52
2022/08/24 08:29:58;;;;;;;3.03;2.70;;;;;;;25.79;47.15;96750.59;5056654;28;20202;-51
2022/08/24 08:32:25;;;;;;;4.00;2.50;;;;;;;25.96;47.67;96767.81;5055608;28;20207;-50
2022/08/24 08:34:52;;;;;;;2.67;2.47;;;;;;;26.06;45.90;96761.78;5056565;28;20215;-51
2022/08/24 08:37:19;;;;;;;2.55;2.35;;;;;;;26.20;48.09;96758.63;5056081;28;20257;-51
2022/08/24 08:39:46;;;;;;;3.78;2.55;;;;;;;26.35;46.46;96755.41;5056437;28;20703;-50
2022/08/24 08:42:31;;;;;;;3.42;2.70;;;;;;;26.37;48.27;96753.28;5056134;28;20214;-51
2022/08/24 08:45:08;;;;;;;2.70;2.45;;;;;;;26.23;45.11;96765.44;5056043;28;20219;-52
2022/08/24 08:48:19;;;;;;;3.92;3.08;;;;;;;26.21;46.09;96764.88;5055918;28;20246;-51
2022/08/24 08:51:10;;;;;;;2.78;2.58;;;;;;;25.92;46.67;96765.81;5036480;28;20295;-50
2022/08/24 08:54:21;;;;;;;6.53;2.78;;;;;;;26.27;47.13;96763.91;5056408;28;20685;-51
2022/08/24 08:57:00;;;;;;;5.15;3.00;;;;;;;26.41;44.21;96759.88;5051489;28;20191;-51
2022/08/24 08:59:41;;;;;;;2.60;2.40;;;;;;;26.57;47.03;96761.81;5056336;28;20238;-52
2022/08/24 09:02:19;;;;;;;4.63;2.58;;;;;;;26.42;45.45;96766.97;5055821;28;20210;-51
2022/08/24 09:04:54;;;;;;;5.57;2.65;;;;;;;26.55;44.60;96750.41;5056264;28;20226;-52
2022/08/24 09:07:36;;;;;;;2.40;2.20;;;;;;;26.73;44.79;96747.50;5042791;28;20242;-50
2022/08/24 09:10:13;;;;;;;3.72;2.50;;;;;;;26.78;43.69;96745.97;5056062;28;20231;-51
2022/08/24 09:12:54;;;;;;;2.78;2.50;;;;;;;27.00;43.48;96747.75;5055721;28;20695;-51
2022/08/24 09:15:34;;;;;;;2.63;2.35;;;;;;;27.19;42.63;96751.09;5048694;28;20645;-50
2022/08/24 09:18:12;;;;;;;5.07;2.50;;;;;;;27.28;41.09;96749.59;5053314;28;20639;-50
2022/08/24 09:20:59;;;;;;;2.58;2.28;;;;;;;27.45;45.12;96734.19;5046985;28;20249;-52
2022/08/24 09:23:30;;;;;;;7.80;2.88;;;;;;;27.62;44.79;96745.88;5055579;28;20272;-51
2022/08/24 09:26:02;;;;;;;2.42;2.22;;;;;;;27.81;42.65;96743.69;5054753;28;20286;-50
2022/08/24 09:28:40;;;;;;;2.72;2.53;;;;;;;27.66;41.94;96740.78;5055495;28;20246;-50
2022/08/24 09:31:31;;;;;;;2.90;2.38;;;;;;;27.75;42.86;96741.97;5055675;28;20207;-51
2022/08/24 09:34:08;;;;;;;4.38;2.42;;;;;;;27.83;41.26;96741.56;5051622;28;20659;-51
2022/08/24 09:36:47;;;;;;;2.50;2.30;;;;;;;28.03;42.83;96735.59;5055115;28;20253;-52
2022/08/24 09:39:21;;;;;;;6.82;2.92;;;;;;;28.08;41.90;96749.28;5054842;28;20711;-51
2022/08/24 09:42:14;;;;;;;2.13;1.92;;;;;;;28.27;39.90;96742.47;5055022;28;20210;-50
2022/08/24 09:44:57;;;;;;;3.03;2.47;;;;;;;28.41;38.81;96738.28;5055142;28;20290;-50
2022/08/24 09:47:42;;;;;;;2.20;2.00;;;;;;;28.13;39.54;96730.31;5054465;28;20242;-50
2022/08/24 09:50:46;;;;;;;3.10;2.05;;;;;;;28.31;41.21;96731.91;5055173;28;20257;-50
2022/08/24 09:53:54;;;;;;;6.63;2.92;;;;;;;28.26;39.92;96740.84;5035069;28;20294;-51
2022/08/24 09:56:37;;;;;;;2.70;1.98;;;;;;;28.22;37.53;96734.25;5053641;28;20298;-51
2022/08/24 09:59:13;;;;;;;3.05;1.83;;;;;;;28.43;37.37;96744.31;5040967;28;20631;-51
2022/08/24 10:01:46;;;;;;;1.92;1.83;;;;;;;28.67;39.12;96732.13;5054719;28;20272;-50
2022/08/24 10:04:23;;;;;;;3.65;2.15;;;;;;;28.92;38.97;96734.28;5053835;28;20294;-50
2022/08/24 10:06:59;;;;;;;4.47;2.38;;;;;;;28.94;37.15;96728.59;5053850;28;20199;-51
2022/08/24 10:09:49;;;;;;;6.63;2.00;;;;;;;28.90;38.06;96724.75;5054810;28;20214;-50
2022/08/24 10:12:25;;;;;;;2.67;2.00;;;;;;;28.52;37.73;96718.31;5042795;28;20191;-51
2022/08/24 10:14:59;;;;;;;2.42;2.30;;;;;;;28.98;38.76;96718.84;5054760;28;20695;-50
2022/08/24 10:17:34;;;;;;;2.17;2.00;;;;;;;29.11;38.02;96718.41;5054405;28;20655;-52
2022/08/24 10:20:09;;;;;;;2.10;1.90;;;;;;;29.22;37.33;96716.63;5055105;28;20234;-52
2022/08/24 10:22:55;;;;;;;1.80;1.70;;;;;;;29.15;34.99;96716.81;5048884;28;20234;-53
2022/08/24 10:25:30;;;;;;;4.53;4.13;;;;;;;29.20;36.01;96713.31;5055391;28;20230;-49
2022/08/24 10:28:03;;;;;;;2.72;2.35;;;;;;;29.09;34.85;96706.94;5056544;28;20221;-50
2022/08/24 10:30:57;;;;;;;4.43;2.00;;;;;;;29.36;36.42;96699.59;5055440;28;20293;-50
2022/08/24 10:33:27;;;;;;;2.40;1.63;;;;;;;29.38;36.21;96721.13;5044416;28;20238;-53
2022/08/24 10:36:21;;;;;;;1.75;1.65;;;;;;;29.29;35.16;96711.81;5055637;28;20597;-49
2022/08/24 10:42:00;;;;;;;1.38;1.27;;;;;;;29.23;35.08;96704.66;5057152;28;20194;-51
2022/08/24 10:44:47;;;;;;;3.97;1.85;;;;;;;29.13;34.67;96714.34;5052786;28;20223;-52
2022/08/24 10:47:20;;;;;;;1.70;1.60;;;;;;;28.82;33.31;96712.41;5053287;28;20206;-50
2022/08/24 10:50:13;;;;;;;2.03;1.52;;;;;;;28.76;33.57;96716.16;5053654;28;20290;-50
2022/08/24 10:53:14;;;;;;;2.70;1.70;;;;;;;28.86;33.02;96710.00;5053521;28;20207;-50
2022/08/24 10:55:42;;;;;;;1.58;1.48;;;;;;;29.04;33.69;96715.09;5021291;28;20210;-50
2022/08/24 10:58:49;;;;;;;8.18;1.73;;;;;;;28.81;33.17;96716.22;5053626;28;20195;-52
2022/08/24 11:01:25;;;;;;;2.17;1.48;;;;;;;28.95;32.90;96714.72;5048631;28;20214;-52
2022/08/24 11:04:06;;;;;;;1.70;1.60;;;;;;;29.40;35.13;96713.53;5051871;28;20198;-51
2022/08/24 11:06:37;;;;;;;2.58;1.52;;;;;;;29.42;33.16;96712.19;5058011;28;20203;-51
2022/08/24 11:09:09;;;;;;;2.00;1.50;;;;;;;29.53;33.41;96713.91;5057856;28;20326;-51
2022/08/24 11:11:38;;;;;;;4.57;1.65;;;;;;;29.27;32.56;96713.94;5057462;28;20598;-50
2022/08/24 11:14:07;;;;;;;5.57;2.08;;;;;;;28.99;31.91;96715.03;5058183;28;20293;-50
2022/08/24 11:16:37;;;;;;;3.45;1.73;;;;;;;29.20;34.30;96718.75;5057107;28;20285;-51
2022/08/24 11:19:08;;;;;;;2.05;1.73;;;;;;;29.21;32.32;96710.34;5057131;28;20290;-52
2022/08/24 11:21:40;;;;;;;2.80;1.75;;;;;;;29.45;31.98;96706.22;5057599;28;20230;-50
2022/08/24 11:24:12;;;;;;;1.65;1.55;;;;;;;29.42;32.20;96704.00;5057801;28;20217;-49
2022/08/24 11:26:50;;;;;;;2.05;1.95;;;;;;;29.40;31.36;96692.56;5055101;28;20291;-50
2022/08/24 11:29:16;;;;;;;1.85;1.75;;;;;;;29.45;31.10;96700.75;5057154;28;20298;-49
2022/08/24 11:31:44;;;;;;;1.58;1.48;;;;;;;29.06;31.72;96691.13;5057487;28;20285;-49
2022/08/24 11:34:15;;;;;;;1.85;1.52;;;;;;;29.39;31.89;96688.19;5056970;28;20230;-51
2022/08/24 11:36:42;;;;;;;2.42;1.50;;;;;;;29.22;31.20;96700.28;5056793;28;20249;-50
2022/08/24 11:39:17;;;;;;;1.77;1.67;;;;;;;29.45;31.92;96691.75;5056939;28;20301;-49
2022/08/24 11:41:51;;;;;;;2.78;1.80;;;;;;;29.38;32.56;96697.44;5057392;28;20221;-50
2022/08/24 11:44:24;;;;;;;1.65;1.55;;;;;;;29.17;31.99;96692.88;5057233;28;20222;-49
2022/08/24 11:46:53;;;;;;;2.33;2.00;;;;;;;29.35;31.10;96684.34;5058492;28;20263;-49
2022/08/24 11:49:27;;;;;;;3.92;1.70;;;;;;;29.58;32.26;96689.41;5068539;28;20235;-49
2022/08/24 11:52:02;;;;;;;4.30;2.15;;;;;;;29.66;32.85;96690.81;5062268;28;20248;-49
2022/08/24 11:54:34;;;;;;;1.60;1.50;;;;;;;29.77;31.23;96688.97;5059825;28;20230;-49
2022/08/24 11:57:08;;;;;;;3.30;1.95;;;;;;;29.87;30.79;96679.00;5063967;28;20206;-49